sensor_id;sensor_type;location;lat;lon;timestamp;pressure;altitude;pressure_sealevel;temperature;humidity
75562;BME280;64143;53.034;18.582;2022-10-31T00:02:51;101999.98;;;13.54;78.49
75562;BME280;64143;53.034;18.582;2022-10-31T00:05:57;101998.13;;;13.46;78.98
75562;BME280;64143;53.034;18.582;2022-10-31T00:09:01;101998.45;;;13.43;78.74
75562;BME280;64143;53.034;18.582;2022-10-31T00:12:03;101998.29;;;13.36;78.89
75562;BME280;64143;53.034;18.582;2022-10-31T00:15:04;101996.14;;;13.40;78.34
75562;BME280;64143;53.034;18.582;2022-10-31T00:18:07;101996.80;;;13.42;78.47
75562;BME280;64143;53.034;18.582;2022-10-31T00:21:18;101999.62;;;13.40;78.56
75562;BME280;64143;53.034;18.582;2022-10-31T00:24:20;102002.41;;;13.39;78.71
75562;BME280;64143;53.034;18.582;2022-10-31T00:27:22;101994.81;;;13.36;79.36
75562;BME280;64143;53.034;18.582;2022-10-31T00:30:23;102001.91;;;13.35;79.45
75562;BME280;64143;53.034;18.582;2022-10-31T00:33:24;102006.05;;;13.38;79.43
75562;BME280;64143;53.034;18.582;2022-10-31T00:36:26;101997.42;;;13.28;80.21
75562;BME280;64143;53.034;18.582;2022-10-31T00:39:27;101995.93;;;13.25;80.26
75562;BME280;64143;53.034;18.582;2022-10-31T00:42:33;101998.40;;;13.19;82.32
75562;BME280;64143;53.034;18.582;2022-10-31T00:45:35;101993.11;;;13.19;81.58
75562;BME280;64143;53.034;18.582;2022-10-31T00:48:36;101986.84;;;13.20;81.16
75562;BME280;64143;53.034;18.582;2022-10-31T00:51:38;101996.84;;;13.16;82.37
75562;BME280;64143;53.034;18.582;2022-10-31T00:54:39;101990.58;;;13.17;81.73
75562;BME280;64143;53.034;18.582;2022-10-31T00:57:41;101988.27;;;13.14;81.47
75562;BME280;64143;53.034;18.582;2022-10-31T01:03:48;101989.24;;;13.13;81.71
75562;BME280;64143;53.034;18.582;2022-10-31T01:06:49;101988.27;;;13.14;82.13
75562;BME280;64143;53.034;18.582;2022-10-31T01:09:51;101985.12;;;13.10;83.09
75562;BME280;64143;53.034;18.582;2022-10-31T01:12:52;101980.82;;;13.09;82.97
75562;BME280;64143;53.034;18.582;2022-10-31T01:15:55;101984.78;;;13.05;82.43
75562;BME280;64143;53.034;18.582;2022-10-31T01:18:57;101981.98;;;13.07;82.76
75562;BME280;64143;53.034;18.582;2022-10-31T01:21:58;101984.45;;;13.08;83.90
75562;BME280;64143;53.034;18.582;2022-10-31T01:25:04;101983.91;;;12.97;84.76
75562;BME280;64143;53.034;18.582;2022-10-31T01:28:06;101978.13;;;12.93;85.97
75562;BME280;64143;53.034;18.582;2022-10-31T01:31:09;101979.73;;;12.86;84.00
75562;BME280;64143;53.034;18.582;2022-10-31T01:34:16;101971.47;;;12.81;85.88
75562;BME280;64143;53.034;18.582;2022-10-31T01:37:18;101971.78;;;12.78;85.26
75562;BME280;64143;53.034;18.582;2022-10-31T01:40:29;101982.66;;;12.75;84.37
75562;BME280;64143;53.034;18.582;2022-10-31T01:46:51;101990.73;;;12.73;81.97
75562;BME280;64143;53.034;18.582;2022-10-31T01:49:57;101982.00;;;12.73;81.92
75562;BME280;64143;53.034;18.582;2022-10-31T01:53:02;101982.50;;;12.76;82.10
75562;BME280;64143;53.034;18.582;2022-10-31T01:56:05;101978.39;;;12.82;82.20
75562;BME280;64143;53.034;18.582;2022-10-31T01:59:10;101985.64;;;12.80;81.89
75562;BME280;64143;53.034;18.582;2022-10-31T02:02:15;101979.21;;;12.82;81.01
75562;BME280;64143;53.034;18.582;2022-10-31T02:05:24;101978.07;;;12.85;81.25
75562;BME280;64143;53.034;18.582;2022-10-31T02:08:30;101980.70;;;12.85;81.89
75562;BME280;64143;53.034;18.582;2022-10-31T02:11:34;101986.12;;;12.75;83.29
75562;BME280;64143;53.034;18.582;2022-10-31T02:14:44;101999.93;;;12.69;83.94
75562;BME280;64143;53.034;18.582;2022-10-31T02:17:47;101994.81;;;12.68;83.36
75562;BME280;64143;53.034;18.582;2022-10-31T02:24:24;102001.30;;;12.73;82.67
75562;BME280;64143;53.034;18.582;2022-10-31T02:33:54;102005.93;;;12.79;83.12
75562;BME280;64143;53.034;18.582;2022-10-31T02:37:10;101994.55;;;12.79;82.02
75562;BME280;64143;53.034;18.582;2022-10-31T02:40:25;102004.12;;;12.80;81.28
75562;BME280;64143;53.034;18.582;2022-10-31T02:43:42;102010.06;;;12.82;82.86
75562;BME280;64143;53.034;18.582;2022-10-31T02:46:58;102018.97;;;12.81;84.10
75562;BME280;64143;53.034;18.582;2022-10-31T02:53:15;102019.63;;;12.83;82.22
75562;BME280;64143;53.034;18.582;2022-10-31T02:56:19;102030.86;;;12.85;81.11
75562;BME280;64143;53.034;18.582;2022-10-31T02:59:22;102021.13;;;12.85;80.79
75562;BME280;64143;53.034;18.582;2022-10-31T03:12:25;102031.59;;;12.95;81.38
75562;BME280;64143;53.034;18.582;2022-10-31T03:15:31;102033.90;;;12.98;83.76
75562;BME280;64143;53.034;18.582;2022-10-31T03:18:40;102029.43;;;12.91;83.79
75562;BME280;64143;53.034;18.582;2022-10-31T03:21:46;102035.15;;;12.86;83.69
75562;BME280;64143;53.034;18.582;2022-10-31T03:24:50;102031.18;;;12.82;83.67
75562;BME280;64143;53.034;18.582;2022-10-31T03:27:54;102038.10;;;12.83;84.09
75562;BME280;64143;53.034;18.582;2022-10-31T03:30:56;102034.20;;;12.87;83.80
75562;BME280;64143;53.034;18.582;2022-10-31T03:34:01;102037.13;;;12.84;82.84
75562;BME280;64143;53.034;18.582;2022-10-31T03:37:07;102034.70;;;12.91;83.68
75562;BME280;64143;53.034;18.582;2022-10-31T03:40:11;102035.85;;;12.88;82.03
75562;BME280;64143;53.034;18.582;2022-10-31T03:43:19;102041.42;;;12.85;83.00
75562;BME280;64143;53.034;18.582;2022-10-31T03:46:24;102041.42;;;12.85;85.56
75562;BME280;64143;53.034;18.582;2022-10-31T03:49:36;102047.39;;;12.87;85.20
75562;BME280;64143;53.034;18.582;2022-10-31T03:55:53;102049.55;;;12.92;83.55
75562;BME280;64143;53.034;18.582;2022-10-31T03:59:18;102049.04;;;12.88;83.68
75562;BME280;64143;53.034;18.582;2022-10-31T04:02:17;102046.08;;;12.91;83.03
75562;BME280;64143;53.034;18.582;2022-10-31T04:05:20;102059.28;;;12.91;84.57
75562;BME280;64143;53.034;18.582;2022-10-31T04:08:31;102056.14;;;12.88;84.73
75562;BME280;64143;53.034;18.582;2022-10-31T04:11:38;102051.97;;;12.85;84.95
75562;BME280;64143;53.034;18.582;2022-10-31T04:14:43;102050.99;;;12.86;85.35
75562;BME280;64143;53.034;18.582;2022-10-31T04:17:58;102052.25;;;12.74;84.82
75562;BME280;64143;53.034;18.582;2022-10-31T04:21:07;102049.07;;;12.70;85.82
75562;BME280;64143;53.034;18.582;2022-10-31T04:24:09;102045.33;;;12.73;85.80
75562;BME280;64143;53.034;18.582;2022-10-31T04:27:11;102047.27;;;12.71;86.24
75562;BME280;64143;53.034;18.582;2022-10-31T04:30:12;102039.00;;;12.66;85.90
75562;BME280;64143;53.034;18.582;2022-10-31T04:33:18;102054.98;;;12.64;86.15
75562;BME280;64143;53.034;18.582;2022-10-31T04:36:19;102045.27;;;12.65;86.15
75562;BME280;64143;53.034;18.582;2022-10-31T04:39:21;102037.19;;;12.66;85.47
75562;BME280;64143;53.034;18.582;2022-10-31T04:42:23;102046.91;;;12.66;85.21
75562;BME280;64143;53.034;18.582;2022-10-31T04:45:24;102037.70;;;12.70;86.01
75562;BME280;64143;53.034;18.582;2022-10-31T04:48:26;102034.39;;;12.68;86.37
75562;BME280;64143;53.034;18.582;2022-10-31T04:51:28;102032.73;;;12.67;85.56
75562;BME280;64143;53.034;18.582;2022-10-31T04:54:33;102037.30;;;12.56;86.40
75562;BME280;64143;53.034;18.582;2022-10-31T04:57:42;102028.69;;;12.54;83.99
75562;BME280;64143;53.034;18.582;2022-10-31T05:00:44;102021.98;;;12.60;84.36
75562;BME280;64143;53.034;18.582;2022-10-31T05:03:45;102024.16;;;12.65;84.58
75562;BME280;64143;53.034;18.582;2022-10-31T05:06:47;102029.43;;;12.65;84.20
75562;BME280;64143;53.034;18.582;2022-10-31T05:09:53;102032.22;;;12.63;84.83
75562;BME280;64143;53.034;18.582;2022-10-31T05:13:00;102027.10;;;12.62;84.80
75562;BME280;64143;53.034;18.582;2022-10-31T05:16:02;102036.98;;;12.60;84.42
75562;BME280;64143;53.034;18.582;2022-10-31T05:19:04;102038.63;;;12.61;85.24
75562;BME280;64143;53.034;18.582;2022-10-31T05:22:05;102039.16;;;12.64;85.75
75562;BME280;64143;53.034;18.582;2022-10-31T05:25:15;102053.33;;;12.63;87.60
75562;BME280;64143;53.034;18.582;2022-10-31T05:28:16;102044.44;;;12.64;87.39
75562;BME280;64143;53.034;18.582;2022-10-31T05:31:18;102037.82;;;12.60;89.79
75562;BME280;64143;53.034;18.582;2022-10-31T05:34:19;102042.27;;;12.60;89.01
75562;BME280;64143;53.034;18.582;2022-10-31T05:37:21;102048.81;;;12.55;90.89
75562;BME280;64143;53.034;18.582;2022-10-31T05:40:23;102048.61;;;12.49;89.31
75562;BME280;64143;53.034;18.582;2022-10-31T05:43:24;102051.77;;;12.52;89.59
75562;BME280;64143;53.034;18.582;2022-10-31T05:46:29;102060.66;;;12.51;88.95
75562;BME280;64143;53.034;18.582;2022-10-31T05:49:31;102057.87;;;12.53;89.47
75562;BME280;64143;53.034;18.582;2022-10-31T05:52:33;102061.88;;;12.57;89.97
75562;BME280;64143;53.034;18.582;2022-10-31T05:55:34;102064.36;;;12.59;88.54
75562;BME280;64143;53.034;18.582;2022-10-31T05:58:36;102064.20;;;12.60;89.10
75562;BME280;64143;53.034;18.582;2022-10-31T06:01:37;102066.37;;;12.65;88.25
75562;BME280;64143;53.034;18.582;2022-10-31T06:04:39;102068.38;;;12.71;87.72
75562;BME280;64143;53.034;18.582;2022-10-31T06:07:44;102070.50;;;12.67;87.82
75562;BME280;64143;53.034;18.582;2022-10-31T06:10:46;102072.47;;;12.65;88.98
75562;BME280;64143;53.034;18.582;2022-10-31T06:13:47;102071.95;;;12.62;89.68
75562;BME280;64143;53.034;18.582;2022-10-31T06:16:49;102075.43;;;12.62;88.58
75562;BME280;64143;53.034;18.582;2022-10-31T06:19:50;102074.59;;;12.62;89.38
75562;BME280;64143;53.034;18.582;2022-10-31T06:22:52;102077.90;;;12.64;88.86
75562;BME280;64143;53.034;18.582;2022-10-31T06:25:53;102082.52;;;12.62;88.85
75562;BME280;64143;53.034;18.582;2022-10-31T06:28:59;102091.72;;;12.58;89.74
75562;BME280;64143;53.034;18.582;2022-10-31T06:32:01;102090.78;;;12.67;89.33
75562;BME280;64143;53.034;18.582;2022-10-31T06:35:02;102094.10;;;12.69;88.79
75562;BME280;64143;53.034;18.582;2022-10-31T06:38:04;102092.44;;;12.68;88.07
75562;BME280;64143;53.034;18.582;2022-10-31T06:41:06;102095.75;;;12.70;88.40
75562;BME280;64143;53.034;18.582;2022-10-31T06:44:07;102100.52;;;12.66;86.79
75562;BME280;64143;53.034;18.582;2022-10-31T06:47:09;102107.29;;;12.69;87.29
75562;BME280;64143;53.034;18.582;2022-10-31T06:50:15;102099.38;;;12.69;86.85
75562;BME280;64143;53.034;18.582;2022-10-31T06:53:16;102095.23;;;12.66;87.49
75562;BME280;64143;53.034;18.582;2022-10-31T06:56:18;102098.03;;;12.65;87.63
75562;BME280;64143;53.034;18.582;2022-10-31T06:59:19;102104.95;;;12.66;87.13
75562;BME280;64143;53.034;18.582;2022-10-31T07:02:21;102110.76;;;12.69;87.00
75562;BME280;64143;53.034;18.582;2022-10-31T07:05:23;102108.12;;;12.69;87.63
75562;BME280;64143;53.034;18.582;2022-10-31T07:08:24;102107.13;;;12.70;87.32
75562;BME280;64143;53.034;18.582;2022-10-31T07:11:29;102110.98;;;12.76;87.13
75562;BME280;64143;53.034;18.582;2022-10-31T07:14:31;102112.13;;;12.73;85.84
75562;BME280;64143;53.034;18.582;2022-10-31T07:17:32;102116.26;;;12.76;86.11
75562;BME280;64143;53.034;18.582;2022-10-31T07:20:34;102116.86;;;12.70;85.98
75562;BME280;64143;53.034;18.582;2022-10-31T07:23:35;102112.64;;;12.77;87.36
75562;BME280;64143;53.034;18.582;2022-10-31T07:26:37;102122.69;;;12.73;86.07
75562;BME280;64143;53.034;18.582;2022-10-31T07:29:39;102123.95;;;12.69;86.57
75562;BME280;64143;53.034;18.582;2022-10-31T07:32:46;102121.56;;;12.58;87.80
75562;BME280;64143;53.034;18.582;2022-10-31T07:35:48;102126.30;;;12.54;86.65
75562;BME280;64143;53.034;18.582;2022-10-31T07:38:49;102132.55;;;12.53;86.38
75562;BME280;64143;53.034;18.582;2022-10-31T07:41:51;102141.85;;;12.58;86.28
75562;BME280;64143;53.034;18.582;2022-10-31T07:44:52;102138.13;;;12.68;85.78
75562;BME280;64143;53.034;18.582;2022-10-31T07:47:54;102143.32;;;12.78;86.67
75562;BME280;64143;53.034;18.582;2022-10-31T07:50:56;102141.31;;;12.72;86.49
75562;BME280;64143;53.034;18.582;2022-10-31T07:54:00;102140.48;;;12.71;87.16
75562;BME280;64143;53.034;18.582;2022-10-31T07:57:02;102139.63;;;12.71;85.93
75562;BME280;64143;53.034;18.582;2022-10-31T08:00:05;102139.34;;;12.74;87.07
75562;BME280;64143;53.034;18.582;2022-10-31T08:03:09;102150.18;;;12.71;86.91
75562;BME280;64143;53.034;18.582;2022-10-31T08:06:11;102146.04;;;12.68;86.17
75562;BME280;64143;53.034;18.582;2022-10-31T08:09:21;102152.77;;;12.63;85.56
75562;BME280;64143;53.034;18.582;2022-10-31T08:12:23;102152.70;;;12.72;86.10
75562;BME280;64143;53.034;18.582;2022-10-31T08:15:25;102151.72;;;12.73;85.98
75562;BME280;64143;53.034;18.582;2022-10-31T08:18:27;102156.52;;;12.78;85.51
75562;BME280;64143;53.034;18.582;2022-10-31T08:21:29;102158.84;;;12.81;87.25
75562;BME280;64143;53.034;18.582;2022-10-31T08:24:42;102153.57;;;12.81;86.76
75562;BME280;64143;53.034;18.582;2022-10-31T08:27:48;102156.29;;;12.89;85.55
75562;BME280;64143;53.034;18.582;2022-10-31T08:30:50;102150.38;;;12.95;85.61
75562;BME280;64143;53.034;18.582;2022-10-31T08:33:52;102160.97;;;12.77;84.66
75562;BME280;64143;53.034;18.582;2022-10-31T08:36:53;102160.51;;;12.82;85.45
75562;BME280;64143;53.034;18.582;2022-10-31T08:40:03;102172.55;;;12.84;85.36
75562;BME280;64143;53.034;18.582;2022-10-31T08:43:12;102172.48;;;12.94;85.74
75562;BME280;64143;53.034;18.582;2022-10-31T08:46:14;102177.77;;;12.94;85.55
75562;BME280;64143;53.034;18.582;2022-10-31T08:49:15;102181.07;;;12.96;84.61
75562;BME280;64143;53.034;18.582;2022-10-31T08:52:17;102183.36;;;12.91;84.46
75562;BME280;64143;53.034;18.582;2022-10-31T08:55:24;102180.09;;;12.97;86.04
75562;BME280;64143;53.034;18.582;2022-10-31T08:58:25;102181.16;;;13.04;84.22
75562;BME280;64143;53.034;18.582;2022-10-31T09:01:26;102181.49;;;13.09;83.14
75562;BME280;64143;53.034;18.582;2022-10-31T09:04:28;102176.29;;;13.18;83.19
75562;BME280;64143;53.034;18.582;2022-10-31T09:07:29;102184.21;;;13.18;84.24
75562;BME280;64143;53.034;18.582;2022-10-31T09:10:32;102181.64;;;13.26;82.88
75562;BME280;64143;53.034;18.582;2022-10-31T09:13:34;102188.06;;;13.23;83.19
75562;BME280;64143;53.034;18.582;2022-10-31T09:16:39;102180.05;;;13.33;82.70
75562;BME280;64143;53.034;18.582;2022-10-31T09:19:40;102173.46;;;13.37;82.18
75562;BME280;64143;53.034;18.582;2022-10-31T09:22:41;102177.59;;;13.39;81.90
75562;BME280;64143;53.034;18.582;2022-10-31T09:25:45;102169.83;;;13.38;82.30
75562;BME280;64143;53.034;18.582;2022-10-31T09:28:47;102168.49;;;13.34;82.58
75562;BME280;64143;53.034;18.582;2022-10-31T09:31:48;102171.16;;;13.42;82.43
75562;BME280;64143;53.034;18.582;2022-10-31T09:34:50;102169.52;;;13.41;82.13
75562;BME280;64143;53.034;18.582;2022-10-31T09:37:59;102173.87;;;13.50;81.79
75562;BME280;64143;53.034;18.582;2022-10-31T09:44:26;102179.50;;;13.55;82.78
75562;BME280;64143;53.034;18.582;2022-10-31T09:50:58;102188.60;;;13.61;81.84
75562;BME280;64143;53.034;18.582;2022-10-31T09:54:12;102182.87;;;13.65;81.65
75562;BME280;64143;53.034;18.582;2022-10-31T09:57:18;102184.03;;;13.71;81.53
75562;BME280;64143;53.034;18.582;2022-10-31T10:00:22;102187.82;;;13.68;81.56
75562;BME280;64143;53.034;18.582;2022-10-31T10:06:39;102195.09;;;13.66;81.53
75562;BME280;64143;53.034;18.582;2022-10-31T10:09:47;102192.77;;;13.63;81.59
